Time;durP1;ratioP1;P1;durP2;ratioP2;P2;SDS_P1;SDS_P2;PMS_P1;PMS_P2;Temp;Humidity;BMP_temperature;BMP_pressure;BME280_temperature;BME280_humidity;BME280_pressure;Samples;Min_cycle;Max_cycle;Signal;HPM_P1;HPM_P2
2022/02/04 00:24:07;;;;;;;29.42;17.70;;;;;;;8.02;100.00;97314.16;4900367;29;20048;-84
2022/02/04 00:26:40;;;;;;;33.38;18.85;;;;;;;8.06;100.00;97310.53;4883089;29;20052;-81
2022/02/04 00:29:18;;;;;;;30.92;18.45;;;;;;;8.04;100.00;97317.34;4883863;29;20108;-81
2022/02/04 00:31:50;;;;;;;32.58;18.40;;;;;;;7.93;100.00;97322.16;4883971;29;20057;-85
2022/02/04 00:34:20;;;;;;;29.95;18.73;;;;;;;7.82;100.00;97325.41;4900516;29;20060;-83
2022/02/04 00:39:46;;;;;;;35.88;20.55;;;;;;;7.75;100.00;97308.84;4885176;29;20120;-83
2022/02/04 00:42:12;;;;;;;32.05;19.80;;;;;;;7.64;100.00;97304.81;4907221;29;20048;-82
2022/02/04 00:44:41;;;;;;;35.10;20.20;;;;;;;7.67;100.00;97298.78;4907169;29;20081;-83
2022/02/04 00:47:31;;;;;;;36.38;20.05;;;;;;;7.75;100.00;97315.06;4894797;29;20052;-83
2022/02/04 00:55:15;;;;;;;42.92;23.25;;;;;;;7.65;100.00;97298.31;4906197;29;20060;-83
2022/02/04 01:28:26;;;;;;;44.58;23.83;;;;;;;7.72;100.00;97304.06;4900870;29;20049;-82
2022/02/04 01:30:54;;;;;;;49.97;24.45;;;;;;;7.73;100.00;97305.69;4893574;29;20052;-81
2022/02/04 01:33:21;;;;;;;51.85;26.00;;;;;;;7.68;100.00;97293.13;4913189;29;20072;-82
2022/02/04 01:35:48;;;;;;;48.58;25.73;;;;;;;7.66;100.00;97313.38;4905223;29;20057;-83
2022/02/04 01:38:15;;;;;;;43.17;24.02;;;;;;;7.61;100.00;97300.03;4904697;29;20081;-84
2022/02/04 01:40:42;;;;;;;36.85;21.13;;;;;;;7.42;100.00;97292.91;4902187;29;20056;-82
2022/02/04 01:43:08;;;;;;;34.22;20.52;;;;;;;7.52;100.00;97313.41;4902224;29;20458;-82
2022/02/04 01:45:35;;;;;;;34.35;20.05;;;;;;;7.55;100.00;97304.72;4885030;29;20056;-82
2022/02/04 01:48:01;;;;;;;33.33;19.90;;;;;;;7.52;100.00;97302.63;4885422;29;20094;-84
2022/02/04 01:50:31;;;;;;;36.47;19.30;;;;;;;7.50;100.00;97316.41;4902130;29;20056;-83
2022/02/04 01:53:00;;;;;;;28.30;16.98;;;;;;;7.34;100.00;97314.34;4898957;29;20546;-81
2022/02/04 01:55:28;;;;;;;31.50;17.63;;;;;;;7.27;100.00;97314.75;4897855;29;20100;-82
2022/02/04 01:57:55;;;;;;;32.42;16.98;;;;;;;7.17;100.00;97298.81;4881426;29;20063;-82
2022/02/04 02:00:22;;;;;;;26.05;14.85;;;;;;;7.10;100.00;97309.19;4882062;29;20081;-82
2022/02/04 02:02:50;;;;;;;30.77;16.10;;;;;;;7.26;100.00;97323.94;4899414;29;20590;-81
2022/02/04 02:05:17;;;;;;;25.45;14.80;;;;;;;6.99;100.00;97321.25;4882967;29;20060;-81
2022/02/04 02:07:48;;;;;;;27.75;15.52;;;;;;;7.00;100.00;97317.47;4900204;29;20569;-81
2022/02/04 02:10:18;;;;;;;28.48;15.30;;;;;;;7.04;100.00;97320.34;4900289;29;20101;-83
2022/02/04 02:13:17;;;;;;;29.50;14.65;;;;;;;6.98;100.00;97324.22;4883919;29;20061;-84
2022/02/04 02:59:30;;;;;;;14.25;7.97;;;;;;;6.99;100.00;97333.91;4898630;29;20060;-82
2022/02/04 03:01:34;;;;;;;15.15;6.78;;;;;;;6.87;100.00;97343.25;4894464;29;20053;-81
2022/02/04 03:04:06;;;;;;;11.98;6.68;;;;;;;7.05;100.00;97343.47;4898480;29;20060;-83
2022/02/04 03:06:33;;;;;;;13.38;7.13;;;;;;;6.70;100.00;97328.81;4896279;29;20691;-83
2022/02/04 03:08:59;;;;;;;12.75;6.20;;;;;;;6.77;100.00;97323.81;4895114;29;20060;-83
2022/02/04 03:11:26;;;;;;;11.60;6.32;;;;;;;6.70;100.00;97329.63;4897149;29;20052;-82
2022/02/04 03:13:52;;;;;;;9.10;5.53;;;;;;;6.64;100.00;97327.28;4897489;29;20056;-83
2022/02/04 03:16:21;;;;;;;11.02;5.43;;;;;;;6.69;100.00;97325.31;4895453;29;20242;-81
2022/02/04 03:18:50;;;;;;;10.88;5.90;;;;;;;6.83;100.00;97336.91;4897297;29;20052;-81
2022/02/04 03:21:23;;;;;;;9.45;5.03;;;;;;;6.85;100.00;97332.00;4897619;29;20056;-81
2022/02/04 03:24:01;;;;;;;8.95;5.30;;;;;;;6.91;100.00;97335.41;4898973;29;20060;-81
2022/02/04 03:26:34;;;;;;;9.90;5.40;;;;;;;6.78;100.00;97337.00;4899527;29;20056;-82
2022/02/04 03:29:02;;;;;;;9.10;4.95;;;;;;;6.74;100.00;97333.28;4899542;29;20140;-82
2022/02/04 03:31:34;;;;;;;10.65;5.90;;;;;;;6.70;100.00;97331.50;4897470;29;20083;-82
2022/02/04 03:34:02;;;;;;;8.73;5.03;;;;;;;6.67;100.00;97346.34;4900708;29;20064;-84
2022/02/04 03:36:30;;;;;;;8.80;5.45;;;;;;;6.70;100.00;97345.75;4899068;29;20099;-83
2022/02/04 03:38:59;;;;;;;8.27;4.72;;;;;;;6.55;100.00;97347.91;4898651;29;20053;-82
2022/02/04 03:41:26;;;;;;;7.18;4.40;;;;;;;6.54;100.00;97343.63;4900389;29;20057;-82
2022/02/04 03:43:52;;;;;;;8.13;4.20;;;;;;;6.59;100.00;97343.53;4899309;29;20111;-81
2022/02/04 03:46:19;;;;;;;6.95;3.95;;;;;;;6.60;100.00;97334.38;4900134;29;20125;-82
2022/02/04 03:48:46;;;;;;;7.03;3.38;;;;;;;6.70;100.00;97350.31;4898698;29;20052;-82
2022/02/04 03:51:12;;;;;;;10.80;3.53;;;;;;;6.66;100.00;97360.06;4903471;29;20179;-83
2022/02/04 03:53:39;;;;;;;6.13;3.70;;;;;;;6.52;100.00;97346.59;4908859;29;20069;-81
2022/02/04 03:56:05;;;;;;;6.65;3.40;;;;;;;6.62;100.00;97356.38;4906567;29;20081;-84
2022/02/04 03:58:37;;;;;;;6.60;3.40;;;;;;;6.54;100.00;97344.41;4901878;29;20081;-83
2022/02/04 04:01:05;;;;;;;5.93;2.90;;;;;;;6.57;100.00;97345.72;4899107;29;20106;-84
2022/02/04 04:03:32;;;;;;;4.53;2.88;;;;;;;6.58;100.00;97342.72;4901036;29;20055;-84
2022/02/04 04:05:59;;;;;;;5.40;3.10;;;;;;;6.58;100.00;97339.25;4902119;29;20116;-82
2022/02/04 04:08:25;;;;;;;4.57;2.85;;;;;;;6.64;100.00;97346.91;4901675;29;20061;-82
2022/02/04 04:10:54;;;;;;;5.03;2.88;;;;;;;6.65;100.00;97343.16;4900698;29;20056;-83
2022/02/04 04:13:21;;;;;;;5.43;3.00;;;;;;;6.69;100.00;97351.41;4900702;29;20160;-83
2022/02/04 04:15:48;;;;;;;4.63;2.42;;;;;;;6.50;100.00;97335.34;4896049;29;20104;-81
2022/02/04 04:18:15;;;;;;;4.25;2.55;;;;;;;6.58;100.00;97348.09;4894880;29;20081;-82
2022/02/04 04:20:45;;;;;;;4.28;2.75;;;;;;;6.62;100.00;97343.75;4897488;29;20769;-81
2022/02/04 04:23:12;;;;;;;4.68;2.42;;;;;;;6.49;100.00;97343.69;4905062;29;20056;-83
2022/02/04 04:25:39;;;;;;;4.30;2.60;;;;;;;6.53;100.00;97348.19;4902557;29;20214;-83
2022/02/04 04:28:06;;;;;;;6.28;2.65;;;;;;;6.53;100.00;97339.34;4900287;29;20406;-81
2022/02/04 04:30:33;;;;;;;4.28;2.47;;;;;;;6.49;100.00;97322.19;4904411;29;20056;-84
2022/02/04 04:33:00;;;;;;;6.20;2.42;;;;;;;6.49;100.00;97312.25;4904305;29;20108;-82
2022/02/04 04:35:28;;;;;;;3.63;2.20;;;;;;;6.60;100.00;97353.19;4904956;29;20605;-84
2022/02/04 04:38:10;;;;;;;3.70;2.20;;;;;;;6.57;100.00;97354.59;4904862;29;20056;-83
2022/02/04 04:40:57;;;;;;;4.43;2.20;;;;;;;6.45;100.00;97337.34;4903581;29;20068;-83
2022/02/04 05:29:26;;;;;;;3.10;2.10;;;;;;;6.38;100.00;97344.97;4900690;29;20060;-82
2022/02/04 05:31:53;;;;;;;4.57;2.05;;;;;;;6.46;100.00;97336.22;4905248;29;20119;-81
2022/02/04 05:34:20;;;;;;;6.65;2.33;;;;;;;6.45;100.00;97340.03;4920856;29;20052;-82
2022/02/04 05:36:59;;;;;;;4.65;2.30;;;;;;;6.49;100.00;97338.31;4921028;29;20037;-81
2022/02/04 05:39:29;;;;;;;5.22;2.20;;;;;;;6.50;100.00;97343.44;4916528;29;20055;-83
2022/02/04 05:41:56;;;;;;;5.03;2.22;;;;;;;6.47;100.00;97333.25;4906096;29;20053;-81
2022/02/04 05:44:23;;;;;;;3.10;2.10;;;;;;;6.51;100.00;97341.50;4923356;29;20052;-82
2022/02/04 05:46:55;;;;;;;4.93;2.90;;;;;;;6.45;100.00;97316.63;4904625;29;20470;-83
2022/02/04 05:49:24;;;;;;;3.92;2.45;;;;;;;6.38;100.00;97326.94;4906039;29;20048;-83
2022/02/04 05:54:25;;;;;;;4.57;2.53;;;;;;;6.36;100.00;97349.84;4906900;29;20111;-82
2022/02/04 05:57:02;;;;;;;4.05;2.42;;;;;;;6.44;100.00;97343.78;4906958;29;20053;-83
2022/02/04 06:00:21;;;;;;;3.67;2.40;;;;;;;6.37;100.00;97348.75;4908226;29;20045;-80
2022/02/04 06:02:28;;;;;;;4.95;2.80;;;;;;;6.31;100.00;97347.25;4899220;29;20116;-83
2022/02/04 06:05:08;;;;;;;4.10;2.45;;;;;;;6.30;100.00;97349.13;4904999;29;20402;-84
2022/02/04 06:23:33;;;;;;;5.35;3.22;;;;;;;6.24;100.00;97380.69;4901320;29;20319;-82
2022/02/04 06:26:03;;;;;;;5.07;2.78;;;;;;;6.27;100.00;97385.44;4906342;29;20661;-81
2022/02/04 06:28:29;;;;;;;5.65;2.50;;;;;;;6.21;100.00;97372.41;4891472;29;20528;-81
2022/02/04 06:30:56;;;;;;;5.68;2.88;;;;;;;6.33;100.00;97377.31;4873810;29;20060;-82
2022/02/04 06:33:22;;;;;;;4.60;2.88;;;;;;;6.34;100.00;97385.09;4896091;29;20096;-82
2022/02/04 06:35:49;;;;;;;4.57;2.70;;;;;;;6.27;100.00;97380.06;4894122;29;20048;-83
2022/02/04 06:38:15;;;;;;;4.57;3.03;;;;;;;6.35;100.00;97385.91;4901717;29;20090;-82
2022/02/04 06:40:42;;;;;;;5.47;2.75;;;;;;;6.23;100.00;97373.69;4893549;29;20056;-82
2022/02/04 06:43:09;;;;;;;5.10;2.95;;;;;;;6.27;100.00;97380.06;4898722;29;20048;-80
2022/02/04 06:45:37;;;;;;;6.25;3.13;;;;;;;6.22;100.00;97379.34;4904490;29;20156;-81
2022/02/04 06:48:04;;;;;;;5.13;2.90;;;;;;;6.16;100.00;97370.59;4881375;29;20076;-81
2022/02/04 06:50:30;;;;;;;5.28;3.53;;;;;;;6.05;100.00;97369.16;4882638;29;20049;-81
2022/02/04 06:52:57;;;;;;;5.45;3.45;;;;;;;6.20;100.00;97381.53;4878993;29;20048;-80
2022/02/04 06:55:23;;;;;;;5.90;3.50;;;;;;;6.09;100.00;97375.53;4882950;29;20056;-80
2022/02/04 06:57:51;;;;;;;5.28;3.30;;;;;;;6.19;100.00;97396.88;4889864;29;20056;-82
2022/02/04 07:00:18;;;;;;;4.63;3.03;;;;;;;6.17;100.00;97380.22;4907486;29;20550;-79
2022/02/04 07:02:46;;;;;;;4.85;3.17;;;;;;;6.15;100.00;97382.44;4912025;29;20040;-79
2022/02/04 07:05:14;;;;;;;6.63;3.70;;;;;;;6.13;100.00;97367.69;4904272;29;20192;-80
2022/02/04 07:07:45;;;;;;;6.28;3.58;;;;;;;6.09;100.00;97361.31;4910199;29;20092;-82
2022/02/04 07:10:22;;;;;;;7.80;3.38;;;;;;;6.32;100.00;97387.28;4905665;29;20036;-79
2022/02/04 07:13:16;;;;;;;5.07;3.42;;;;;;;6.29;100.00;97390.56;4902812;29;20089;-81
2022/02/04 07:21:06;;;;;;;5.10;3.17;;;;;;;6.39;100.00;97392.28;4900307;29;20505;-81
2022/02/04 07:23:34;;;;;;;5.07;3.50;;;;;;;6.47;100.00;97388.91;4900146;29;20055;-81
2022/02/04 07:26:01;;;;;;;6.10;3.78;;;;;;;6.41;100.00;97395.47;4888642;29;20055;-82
2022/02/04 07:28:28;;;;;;;5.63;3.58;;;;;;;6.53;100.00;97390.44;4903691;29;20057;-82
2022/02/04 07:30:56;;;;;;;7.00;3.88;;;;;;;6.53;100.00;97387.75;4884927;29;20412;-83
2022/02/04 07:33:36;;;;;;;6.70;3.90;;;;;;;6.62;100.00;97396.72;4903211;29;20478;-84
2022/02/04 07:38:51;;;;;;;6.25;4.20;;;;;;;6.49;100.00;97389.41;4915586;29;20140;-81
2022/02/04 07:41:19;;;;;;;6.97;4.40;;;;;;;6.55;100.00;97386.34;4900270;29;20079;-81
2022/02/04 07:43:47;;;;;;;5.78;3.90;;;;;;;6.64;100.00;97392.66;4884926;29;20056;-83
2022/02/04 07:46:16;;;;;;;8.68;4.28;;;;;;;6.57;100.00;97386.06;4903963;29;20096;-82
2022/02/04 07:48:42;;;;;;;5.80;3.88;;;;;;;6.77;100.00;97399.94;4899925;29;20149;-82
2022/02/04 07:51:13;;;;;;;6.40;4.10;;;;;;;6.65;100.00;97398.81;4880695;29;20056;-82
2022/02/04 07:53:40;;;;;;;7.82;4.28;;;;;;;6.59;100.00;97400.81;4881087;29;20493;-81
2022/02/04 07:56:07;;;;;;;7.07;4.47;;;;;;;6.69;100.00;97387.19;4898123;29;20152;-81
2022/02/04 07:58:34;;;;;;;7.00;4.05;;;;;;;6.84;100.00;97402.25;4882226;29;20661;-82
2022/02/04 08:01:02;;;;;;;6.00;3.90;;;;;;;6.66;100.00;97385.06;4899194;29;20056;-81
2022/02/04 08:03:42;;;;;;;7.35;4.43;;;;;;;6.59;100.00;97373.09;4890707;29;20084;-83
2022/02/04 08:06:13;;;;;;;6.97;4.15;;;;;;;6.83;100.00;97374.56;4896644;29;20053;-79
2022/02/04 08:11:49;;;;;;;9.45;4.50;;;;;;;6.63;100.00;97366.84;4898061;29;20060;-81
2022/02/04 08:33:09;;;;;;;6.63;3.90;;;;;;;6.98;100.00;97386.94;4902490;29;19923;-81
2022/02/04 08:38:28;;;;;;;6.63;3.70;;;;;;;7.08;100.00;97394.81;4903362;29;20410;-82
2022/02/04 08:46:59;;;;;;;6.55;3.45;;;;;;;7.21;100.00;97390.53;4898359;29;20301;-82
2022/02/04 08:49:54;;;;;;;6.80;3.67;;;;;;;7.24;100.00;97382.66;4906009;29;20485;-83
2022/02/04 08:55:06;;;;;;;5.57;3.60;;;;;;;7.39;100.00;97384.25;4902136;29;20120;-82
2022/02/04 09:00:21;;;;;;;6.68;3.50;;;;;;;7.50;100.00;97399.91;4909663;29;20056;-80
2022/02/04 09:02:57;;;;;;;5.22;3.33;;;;;;;7.53;100.00;97387.75;4908728;29;20077;-83
2022/02/04 09:05:36;;;;;;;5.53;3.50;;;;;;;7.71;100.00;97372.53;4890345;29;20036;-83
2022/02/04 09:08:39;;;;;;;4.45;2.90;;;;;;;7.67;100.00;97383.13;4913205;29;20052;-82
2022/02/04 09:11:01;;;;;;;5.05;2.85;;;;;;;7.63;100.00;97389.41;4911670;29;20057;-81
2022/02/04 09:19:02;;;;;;;3.90;2.47;;;;;;;7.54;100.00;97363.19;4907285;29;20052;-83
2022/02/04 09:21:49;;;;;;;3.53;2.38;;;;;;;7.68;100.00;97370.44;4910172;29;20081;-82
2022/02/04 09:24:17;;;;;;;3.83;2.60;;;;;;;7.49;100.00;97349.81;4895250;29;20056;-83
2022/02/04 09:26:44;;;;;;;3.63;2.53;;;;;;;7.53;100.00;97363.50;4909334;29;20152;-80
2022/02/04 09:29:10;;;;;;;3.45;2.05;;;;;;;7.40;100.00;97377.78;4925635;29;20060;-78
2022/02/04 09:31:38;;;;;;;4.03;2.60;;;;;;;7.50;100.00;97375.66;4926294;29;20059;-81
2022/02/04 09:34:06;;;;;;;4.53;2.67;;;;;;;7.63;100.00;97373.25;4920378;29;20049;-80
2022/02/04 09:36:34;;;;;;;4.63;2.65;;;;;;;7.91;100.00;97367.50;4906798;29;20057;-81
2022/02/04 09:39:01;;;;;;;4.20;2.72;;;;;;;7.76;100.00;97367.84;4905224;29;20579;-82
2022/02/04 09:41:28;;;;;;;5.32;2.55;;;;;;;7.68;100.00;97367.75;4904753;29;20072;-81
2022/02/04 09:43:54;;;;;;;6.07;2.92;;;;;;;7.80;100.00;97349.97;4904825;29;20052;-84
2022/02/04 09:46:21;;;;;;;4.95;3.05;;;;;;;7.88;100.00;97351.94;4905535;29;20049;-83
2022/02/04 09:48:54;;;;;;;5.70;2.95;;;;;;;7.74;100.00;97355.78;4892921;29;20060;-84
2022/02/04 09:51:28;;;;;;;4.75;2.90;;;;;;;7.72;100.00;97360.66;4909565;29;20626;-80
2022/02/04 10:17:24;;;;;;;4.30;1.98;;;;;;;8.18;100.00;97349.66;4900999;29;20112;-82
2022/02/04 10:19:56;;;;;;;;;;;;;;;8.30;100.00;97361.50;4906226;29;20505;-82
2022/02/04 10:22:29;;;;;;;3.13;2.13;;;;;;;8.58;100.00;97351.38;4886080;29;19924;-82
2022/02/04 10:25:04;;;;;;;3.83;2.10;;;;;;;7.94;100.00;97355.31;4892568;29;20502;-83
2022/02/04 10:27:32;;;;;;;3.67;2.28;;;;;;;8.11;100.00;97333.88;4907781;29;20049;-82
2022/02/04 10:30:06;;;;;;;2.63;1.83;;;;;;;7.98;100.00;97348.19;4891363;29;20087;-80
2022/02/04 10:32:33;;;;;;;3.22;2.20;;;;;;;8.34;100.00;97334.69;4907519;29;20633;-84
2022/02/04 10:35:00;;;;;;;5.80;2.42;;;;;;;8.54;100.00;97328.81;4884938;29;20053;-83
2022/02/04 10:37:30;;;;;;;5.03;2.67;;;;;;;8.34;100.00;97324.72;4904398;29;20223;-82
2022/02/04 10:40:23;;;;;;;4.07;2.10;;;;;;;8.76;100.00;97317.97;4888596;29;20072;-83
2022/02/04 10:46:28;;;;;;;3.00;2.22;;;;;;;8.82;100.00;97318.63;4910402;29;20045;-80
2022/02/04 10:48:47;;;;;;;2.85;1.80;;;;;;;8.74;100.00;97323.69;4897506;29;20060;-82
2022/02/04 11:02:32;;;;;;;2.58;1.65;;;;;;;8.53;100.00;97297.53;4866887;29;20155;-82
2022/02/04 11:10:39;;;;;;;;;;;;;;;;;;;;;
2022/02/04 11:47:55;;;;;;;1.92;1.30;;;;;;;8.41;100.00;97278.44;4896862;29;20431;-82
2022/02/04 11:55:02;;;;;;;1.40;0.90;;;;;;;8.50;100.00;97271.19;4883957;29;20056;-81
2022/02/04 11:57:34;;;;;;;2.28;1.30;;;;;;;8.51;100.00;97265.50;4896228;29;20120;-81
2022/02/04 12:00:04;;;;;;;1.58;1.08;;;;;;;8.26;100.00;97260.69;4900239;29;20056;-81
2022/02/04 12:02:34;;;;;;;2.67;1.33;;;;;;;8.54;100.00;97262.16;4906969;29;20060;-82
2022/02/04 12:05:07;;;;;;;1.38;0.98;;;;;;;8.69;100.00;97260.97;4887890;29;20053;-84
2022/02/04 12:07:40;;;;;;;2.03;1.20;;;;;;;8.88;100.00;97252.63;4899043;29;20084;-81
2022/02/04 12:10:12;;;;;;;1.38;0.80;;;;;;;8.88;100.00;97234.50;4907199;29;20087;-83
2022/02/04 12:12:55;;;;;;;;;;;;;;;;;;;;;
2022/02/04 12:15:36;;;;;;;1.17;0.80;;;;;;;8.89;100.00;97227.19;4905056;29;20056;-83
2022/02/04 12:18:06;;;;;;;2.17;0.70;;;;;;;8.77;100.00;97225.88;4885078;29;20461;-79
2022/02/04 12:20:45;;;;;;;2.72;0.65;;;;;;;8.93;100.00;97225.47;4905401;29;20056;-83
2022/02/04 12:23:28;;;;;;;2.90;1.00;;;;;;;8.95;100.00;97236.75;4902518;29;20419;-84
2022/02/04 12:26:11;;;;;;;1.10;0.88;;;;;;;8.81;100.00;97226.06;4904552;29;20048;-83
2022/02/04 12:29:05;;;;;;;1.42;0.85;;;;;;;8.63;100.00;97233.31;4906336;29;20041;-82
2022/02/04 12:31:35;;;;;;;1.58;0.70;;;;;;;8.35;100.00;97226.53;4898994;29;20056;-82
2022/02/04 12:34:05;;;;;;;1.10;0.80;;;;;;;8.50;100.00;97222.63;4890355;29;20144;-83
2022/02/04 12:36:39;;;;;;;2.00;1.00;;;;;;;8.58;100.00;97227.25;4904503;29;20052;-84
2022/02/04 12:39:13;;;;;;;1.70;1.00;;;;;;;8.51;100.00;97216.13;4911368;29;20065;-82
2022/02/04 12:41:43;;;;;;;1.25;0.95;;;;;;;8.45;100.00;97207.38;4909820;29;20044;-83
2022/02/04 12:44:14;;;;;;;2.95;1.20;;;;;;;8.70;100.00;97203.16;4914725;29;20112;-84
2022/02/04 12:46:52;;;;;;;2.45;1.10;;;;;;;8.51;100.00;97203.44;4909296;29;20052;-83
2022/02/04 12:49:26;;;;;;;1.50;1.10;;;;;;;8.41;100.00;97203.72;4891812;29;20053;-83
2022/02/04 12:52:09;;;;;;;1.52;0.95;;;;;;;8.11;100.00;97199.09;4904206;29;20087;-81
2022/02/04 12:54:44;;;;;;;1.75;0.90;;;;;;;8.18;100.00;97195.97;4908830;29;20052;-84
2022/02/04 13:00:00;;;;;;;1.88;0.82;;;;;;;8.73;100.00;97176.38;4908757;29;20048;-83
2022/02/04 13:10:23;;;;;;;1.85;1.13;;;;;;;8.55;100.00;97169.31;4903100;29;20060;-83
2022/02/04 13:12:52;;;;;;;1.58;1.00;;;;;;;8.51;100.00;97172.97;4905117;29;20085;-83
2022/02/04 13:15:19;;;;;;;1.42;0.93;;;;;;;8.63;100.00;97165.88;4892535;29;20059;-83
2022/02/04 13:17:45;;;;;;;1.48;1.05;;;;;;;8.34;100.00;97156.72;4910061;29;20153;-83
2022/02/04 13:20:16;;;;;;;2.13;1.20;;;;;;;8.58;100.00;97167.91;4890900;29;20112;-82
2022/02/04 13:22:43;;;;;;;2.22;1.10;;;;;;;8.60;100.00;97141.41;4907977;29;20564;-83
2022/02/04 13:25:21;;;;;;;1.25;0.80;;;;;;;8.67;100.00;97161.41;4907975;29;20610;-81
2022/02/04 13:27:58;;;;;;;1.65;1.10;;;;;;;8.69;100.00;97151.13;4907838;29;20053;-83
2022/02/04 13:30:26;;;;;;;1.92;0.90;;;;;;;8.34;100.00;97157.50;4923242;29;20552;-83
2022/02/04 13:32:53;;;;;;;1.88;1.00;;;;;;;8.46;100.00;97146.94;4912983;29;20036;-83
2022/02/04 13:35:30;;;;;;;1.58;1.05;;;;;;;8.88;100.00;97139.25;4929045;29;20048;-83
2022/02/04 13:38:14;;;;;;;2.20;0.90;;;;;;;9.13;100.00;97138.47;4907757;29;20442;-83
2022/02/04 13:41:06;;;;;;;1.48;0.80;;;;;;;8.97;100.00;97110.34;4908126;29;20052;-84
2022/02/04 13:46:25;;;;;;;1.10;0.70;;;;;;;8.91;100.00;97122.41;4921813;29;20373;-83
2022/02/04 13:51:59;;;;;;;3.42;0.90;;;;;;;8.76;100.00;97102.88;4924765;29;20063;-83
2022/02/04 13:54:37;;;;;;;4.30;0.70;;;;;;;8.92;100.00;97097.00;4903098;29;20075;-83
2022/02/04 14:00:03;;;;;;;1.08;0.70;;;;;;;9.22;100.00;97090.66;4920850;29;20052;-81
2022/02/04 14:02:38;;;;;;;1.42;0.65;;;;;;;8.87;100.00;97078.28;4924408;29;20059;-82
2022/02/04 14:05:07;;;;;;;1.25;0.73;;;;;;;9.06;100.00;97078.78;4917064;29;20490;-83
2022/02/04 14:07:37;;;;;;;2.13;1.00;;;;;;;8.73;100.00;97064.94;4904228;29;20056;-83
2022/02/04 14:10:19;;;;;;;1.65;0.80;;;;;;;8.72;100.00;97053.34;4885301;29;20049;-82
2022/02/04 14:13:01;;;;;;;1.17;0.73;;;;;;;8.72;100.00;97049.88;4906467;29;20117;-81
2022/02/04 14:15:30;;;;;;;1.40;0.88;;;;;;;8.74;100.00;97048.44;4903871;29;20063;-84
2022/02/04 14:17:59;;;;;;;1.17;0.80;;;;;;;8.54;100.00;97035.53;4882189;29;20057;-83
2022/02/04 14:20:25;;;;;;;1.02;0.70;;;;;;;8.58;100.00;97041.13;4883924;29;20053;-81
2022/02/04 14:22:52;;;;;;;1.88;0.73;;;;;;;8.52;100.00;97045.06;4880503;29;20052;-82
2022/02/04 14:25:18;;;;;;;1.73;1.08;;;;;;;8.45;100.00;97050.13;4879810;29;20049;-83
2022/02/04 14:27:49;;;;;;;1.20;0.73;;;;;;;8.50;100.00;97039.19;4882542;29;20065;-83
2022/02/04 14:30:21;;;;;;;2.15;0.90;;;;;;;8.64;100.00;97039.84;4881028;29;20045;-86
2022/02/04 14:32:55;;;;;;;2.28;0.90;;;;;;;8.45;100.00;97031.25;4881384;29;20061;-81
2022/02/04 15:00:33;;;;;;;2.08;1.20;;;;;;;8.13;100.00;97008.16;4898770;29;20564;-85
2022/02/04 15:06:00;;;;;;;1.77;0.90;;;;;;;8.15;100.00;97011.38;4891746;29;20210;-84
2022/02/04 15:08:50;;;;;;;1.42;0.93;;;;;;;8.10;100.00;97016.91;4883923;29;20052;-84
2022/02/04 15:11:19;;;;;;;1.83;1.00;;;;;;;8.01;100.00;97022.25;4897096;29;20473;-84
2022/02/04 15:13:48;;;;;;;2.35;1.30;;;;;;;8.00;100.00;97001.78;4897291;29;20569;-82
2022/02/04 15:16:15;;;;;;;2.35;1.20;;;;;;;8.15;100.00;97008.66;4883760;29;20108;-84
2022/02/04 15:18:43;;;;;;;1.80;1.15;;;;;;;8.17;100.00;97001.06;4884123;29;20368;-83
2022/02/04 15:21:15;;;;;;;1.77;1.05;;;;;;;8.00;100.00;96990.25;4895936;29;20081;-84
2022/02/04 15:23:46;;;;;;;2.83;1.27;;;;;;;8.02;100.00;96988.03;4895671;29;20068;-84
2022/02/04 15:26:14;;;;;;;2.97;1.30;;;;;;;8.24;100.00;96985.19;4878952;29;20195;-83
2022/02/04 15:28:48;;;;;;;2.03;1.20;;;;;;;8.26;100.00;96976.81;4898867;29;20047;-84
2022/02/04 15:31:31;;;;;;;2.28;1.30;;;;;;;8.13;100.00;96990.09;4900091;29;20108;-83
2022/02/04 15:34:00;;;;;;;2.33;1.50;;;;;;;8.31;100.00;96977.47;4881037;29;20132;-82
2022/02/04 15:36:34;;;;;;;2.72;1.13;;;;;;;8.28;100.00;96961.94;4901699;29;20104;-82
2022/02/04 15:39:06;;;;;;;1.42;0.95;;;;;;;8.27;100.00;96968.44;4887649;29;20048;-82
2022/02/04 15:41:35;;;;;;;2.45;1.13;;;;;;;8.19;100.00;96971.88;4888993;29;20060;-84
2022/02/04 15:44:11;;;;;;;2.08;1.10;;;;;;;7.91;100.00;96949.00;4897666;29;21072;-83
2022/02/04 15:46:47;;;;;;;1.75;1.08;;;;;;;7.99;100.00;96951.72;4899748;29;20057;-83
2022/02/04 15:49:41;;;;;;;1.50;1.02;;;;;;;7.87;100.00;96954.22;4881532;29;20053;-85
2022/02/04 16:04:59;;;;;;;2.55;1.13;;;;;;;7.99;100.00;96948.22;4898457;29;20676;-83
2022/02/04 16:07:26;;;;;;;4.00;0.90;;;;;;;8.00;100.00;96960.59;4896540;29;20085;-84
2022/02/04 16:10:04;;;;;;;1.35;1.00;;;;;;;7.71;100.00;96941.50;4898910;29;20117;-82
2022/02/04 16:12:39;;;;;;;1.10;0.80;;;;;;;7.72;100.00;96964.63;4900389;29;20060;-84
2022/02/04 16:15:17;;;;;;;1.45;0.77;;;;;;;7.77;100.00;96948.34;4889067;29;20053;-83
2022/02/04 16:17:55;;;;;;;0.80;0.60;;;;;;;7.84;100.00;96954.06;4899758;29;20422;-81
2022/02/04 16:20:52;;;;;;;2.13;1.00;;;;;;;7.71;100.00;96954.97;4872562;29;20108;-83
2022/02/04 16:23:24;;;;;;;1.50;0.98;;;;;;;7.61;100.00;96936.41;4902299;29;20105;-83
2022/02/04 16:26:00;;;;;;;1.45;0.70;;;;;;;7.69;100.00;96951.81;4883569;29;20072;-83
2022/02/04 16:28:41;;;;;;;1.38;0.90;;;;;;;7.57;100.00;96920.06;4883614;29;20060;-85
2022/02/04 16:31:13;;;;;;;1.30;0.77;;;;;;;7.81;100.00;96931.22;4908950;29;20056;-84
2022/02/04 16:33:44;;;;;;;1.25;0.70;;;;;;;7.70;100.00;96943.41;4887793;29;20065;-84
2022/02/04 16:36:14;;;;;;;1.25;0.70;;;;;;;7.77;100.00;96926.78;4910846;29;20119;-84
2022/02/04 16:38:51;;;;;;;2.15;0.70;;;;;;;7.97;100.00;96936.97;4912328;29;20059;-85
2022/02/04 16:41:24;;;;;;;1.52;0.75;;;;;;;7.76;100.00;96934.06;4894825;29;20565;-86
2022/02/04 16:43:51;;;;;;;1.00;0.50;;;;;;;7.83;100.00;96912.03;4898048;29;20057;-84
2022/02/04 16:46:18;;;;;;;1.27;0.70;;;;;;;7.62;100.00;96911.84;4898365;29;20056;-83
2022/02/04 16:48:44;;;;;;;2.17;0.80;;;;;;;7.54;100.00;96909.91;4894522;29;20505;-81
2022/02/04 16:51:13;;;;;;;1.05;0.70;;;;;;;7.76;100.00;96935.97;4879980;29;20427;-82
2022/02/04 16:53:42;;;;;;;1.15;0.60;;;;;;;7.84;100.00;96946.78;4882023;29;20087;-83
2022/02/04 16:56:10;;;;;;;0.95;0.60;;;;;;;7.84;100.00;96936.00;4884105;29;20136;-84
2022/02/04 16:58:37;;;;;;;0.90;0.60;;;;;;;7.75;100.00;96934.38;4899995;29;20417;-82
2022/02/04 17:01:04;;;;;;;1.38;0.60;;;;;;;7.77;100.00;96924.09;4895393;29;20139;-82
2022/02/04 17:03:31;;;;;;;2.67;0.73;;;;;;;7.53;100.00;96932.59;4897487;29;20471;-86
2022/02/04 17:06:10;;;;;;;2.13;0.60;;;;;;;7.51;100.00;96913.22;4900977;29;20108;-87
2022/02/04 17:08:53;;;;;;;1.38;0.77;;;;;;;7.41;100.00;96900.06;4890498;29;20055;-85
2022/02/04 17:11:40;;;;;;;2.55;0.90;;;;;;;7.26;100.00;96922.81;4904912;29;20091;-86
2022/02/04 17:14:10;;;;;;;1.55;0.90;;;;;;;7.33;100.00;96933.16;4903647;29;20108;-85
2022/02/04 17:16:42;;;;;;;1.45;0.98;;;;;;;6.79;100.00;96918.13;4889330;29;20052;-85
2022/02/04 17:19:10;;;;;;;2.75;1.25;;;;;;;6.71;100.00;96902.75;4901742;29;20689;-84
2022/02/04 17:21:38;;;;;;;1.83;1.10;;;;;;;6.60;100.00;96891.47;4884480;29;20552;-87
2022/02/04 17:24:12;;;;;;;2.67;1.00;;;;;;;6.62;100.00;96872.31;4886193;29;20544;-82
2022/02/04 17:26:40;;;;;;;1.80;1.15;;;;;;;6.76;100.00;96900.72;4902538;29;20044;-85
2022/02/04 17:29:13;;;;;;;5.60;1.40;;;;;;;7.17;100.00;96946.22;4902763;29;20055;-85
2022/02/04 17:31:42;;;;;;;4.53;1.10;;;;;;;6.72;100.00;96921.28;4888721;29;20104;-83
2022/02/04 17:34:20;;;;;;;2.47;1.27;;;;;;;6.86;100.00;96926.59;4902412;29;20076;-84
2022/02/04 17:36:54;;;;;;;3.60;1.40;;;;;;;6.70;100.00;96931.56;4889027;29;20088;-83
2022/02/04 17:39:24;;;;;;;2.53;1.60;;;;;;;6.85;100.00;96933.84;4904296;29;20159;-84
2022/02/04 17:41:55;;;;;;;2.80;1.35;;;;;;;6.97;100.00;96935.19;4887803;29;20067;-86
2022/02/04 17:44:22;;;;;;;4.53;1.50;;;;;;;6.76;100.00;96897.25;4887958;29;20060;-84
2022/02/04 17:46:50;;;;;;;8.35;1.58;;;;;;;6.62;100.00;96918.03;4888675;29;20063;-87
2022/02/04 17:49:48;;;;;;;3.55;1.52;;;;;;;6.42;100.00;96879.00;4898273;29;20049;-87
2022/02/04 17:52:33;;;;;;;2.10;1.30;;;;;;;6.65;100.00;96885.97;4896236;29;20132;-85
2022/02/04 17:55:07;;;;;;;4.30;1.58;;;;;;;6.76;100.00;96927.63;4899353;29;20066;-86
2022/02/04 17:57:43;;;;;;;3.15;1.60;;;;;;;6.66;100.00;96921.69;4885828;29;20135;-84